Bult Field (C56)
Monee, IL
Field Elevation: 790
Lat: 41°22.65N  Long: 87°40.79W
CTAF/Unicom Freq: 123.0000
   
    
Weather Advisories
2024-04-24   09:26 Z
Altimeter 30.10" Hg
Wind 360° @ 11 KT
Gusts 20 KT
Visibility 10 SM
Ceiling OVC013
Temperature 4° C (39° F)
Dewpoint 2° C (36° F)
Relative Humidity 90%
Density Altitude --
Condensation Altitude --
Wind Chill: 0° C (32° F)
Wind and Runways
Indicated Runway = 27
Headwind = 0 kt
Crosswind = 11 kt
History
 
 
 
More Info
 
NOAA Forecast
 
Airport IQ 5010
 
about Optical Scientific
 
FAA Disclaimer: The data displayed is for advisory purposes only and is not to be used for flight planning or operations. For official data, please call (not available) to hear the current automated AWOS voice message.
  METAR C56 240926Z AUTO 36011G20KT 10 SM OVC013 04/02 A3010